sensor_id;sensor_type;location;lat;lon;timestamp;P1;durP1;ratioP1;P2;durP2;ratioP2
19219;SDS011;9744;49.364;7.484;2022-12-11T00:01:44;47.23;;;25.30;;
19219;SDS011;9744;49.364;7.484;2022-12-11T00:04:12;49.67;;;24.93;;
19219;SDS011;9744;49.364;7.484;2022-12-11T00:06:39;54.53;;;24.83;;
19219;SDS011;9744;49.364;7.484;2022-12-11T00:09:07;50.67;;;24.67;;
19219;SDS011;9744;49.364;7.484;2022-12-11T00:11:36;52.87;;;25.43;;
19219;SDS011;9744;49.364;7.484;2022-12-11T00:14:03;58.43;;;25.63;;
19219;SDS011;9744;49.364;7.484;2022-12-11T00:16:31;54.80;;;27.33;;
19219;SDS011;9744;49.364;7.484;2022-12-11T00:18:58;61.77;;;27.33;;
19219;SDS011;9744;49.364;7.484;2022-12-11T00:21:25;61.20;;;28.33;;
19219;SDS011;9744;49.364;7.484;2022-12-11T00:23:52;63.07;;;29.43;;
19219;SDS011;9744;49.364;7.484;2022-12-11T00:26:19;65.60;;;30.43;;
19219;SDS011;9744;49.364;7.484;2022-12-11T00:28:50;63.40;;;29.57;;
19219;SDS011;9744;49.364;7.484;2022-12-11T00:31:20;71.83;;;31.90;;
19219;SDS011;9744;49.364;7.484;2022-12-11T00:33:49;65.10;;;31.37;;
19219;SDS011;9744;49.364;7.484;2022-12-11T00:36:18;75.67;;;32.00;;
19219;SDS011;9744;49.364;7.484;2022-12-11T00:38:47;69.17;;;32.77;;
19219;SDS011;9744;49.364;7.484;2022-12-11T00:41:14;67.80;;;31.03;;
19219;SDS011;9744;49.364;7.484;2022-12-11T00:43:42;64.57;;;30.57;;
19219;SDS011;9744;49.364;7.484;2022-12-11T00:46:10;61.30;;;30.97;;
19219;SDS011;9744;49.364;7.484;2022-12-11T00:48:38;64.53;;;30.73;;
19219;SDS011;9744;49.364;7.484;2022-12-11T00:51:05;66.37;;;30.93;;
19219;SDS011;9744;49.364;7.484;2022-12-11T00:53:32;60.23;;;29.57;;
19219;SDS011;9744;49.364;7.484;2022-12-11T00:56:01;63.13;;;30.27;;
19219;SDS011;9744;49.364;7.484;2022-12-11T00:58:35;65.10;;;30.47;;
19219;SDS011;9744;49.364;7.484;2022-12-11T01:01:06;64.93;;;30.27;;
19219;SDS011;9744;49.364;7.484;2022-12-11T01:03:36;61.07;;;29.70;;
19219;SDS011;9744;49.364;7.484;2022-12-11T01:06:04;72.63;;;32.30;;
19219;SDS011;9744;49.364;7.484;2022-12-11T01:08:31;70.73;;;34.20;;
19219;SDS011;9744;49.364;7.484;2022-12-11T01:11:02;85.20;;;33.83;;
19219;SDS011;9744;49.364;7.484;2022-12-11T01:13:29;78.43;;;34.93;;
19219;SDS011;9744;49.364;7.484;2022-12-11T01:15:57;79.57;;;34.80;;
19219;SDS011;9744;49.364;7.484;2022-12-11T01:18:24;79.97;;;34.67;;
19219;SDS011;9744;49.364;7.484;2022-12-11T01:20:54;81.53;;;35.87;;
19219;SDS011;9744;49.364;7.484;2022-12-11T01:23:22;81.37;;;35.53;;
19219;SDS011;9744;49.364;7.484;2022-12-11T01:25:49;83.30;;;36.07;;
19219;SDS011;9744;49.364;7.484;2022-12-11T01:28:16;77.13;;;34.70;;
19219;SDS011;9744;49.364;7.484;2022-12-11T01:30:44;83.03;;;35.33;;
19219;SDS011;9744;49.364;7.484;2022-12-11T01:33:11;83.90;;;36.30;;
19219;SDS011;9744;49.364;7.484;2022-12-11T01:35:38;92.07;;;38.23;;
19219;SDS011;9744;49.364;7.484;2022-12-11T01:38:07;88.03;;;37.10;;
19219;SDS011;9744;49.364;7.484;2022-12-11T01:40:35;98.83;;;36.63;;
19219;SDS011;9744;49.364;7.484;2022-12-11T01:43:02;92.17;;;36.83;;
19219;SDS011;9744;49.364;7.484;2022-12-11T01:45:38;102.27;;;37.73;;
19219;SDS011;9744;49.364;7.484;2022-12-11T01:48:08;109.70;;;39.63;;
19219;SDS011;9744;49.364;7.484;2022-12-11T01:50:38;102.10;;;41.40;;
19219;SDS011;9744;49.364;7.484;2022-12-11T01:53:11;119.50;;;40.83;;
19219;SDS011;9744;49.364;7.484;2022-12-11T01:55:42;106.93;;;41.27;;
19219;SDS011;9744;49.364;7.484;2022-12-11T01:58:10;119.23;;;41.50;;
19219;SDS011;9744;49.364;7.484;2022-12-11T02:00:38;173.03;;;43.43;;
19219;SDS011;9744;49.364;7.484;2022-12-11T02:03:05;137.73;;;45.27;;
19219;SDS011;9744;49.364;7.484;2022-12-11T02:05:33;125.33;;;44.10;;
19219;SDS011;9744;49.364;7.484;2022-12-11T02:08:00;159.60;;;45.60;;
19219;SDS011;9744;49.364;7.484;2022-12-11T02:10:33;154.23;;;47.27;;
19219;SDS011;9744;49.364;7.484;2022-12-11T02:13:13;155.13;;;46.80;;
19219;SDS011;9744;49.364;7.484;2022-12-11T02:15:46;159.37;;;48.17;;
19219;SDS011;9744;49.364;7.484;2022-12-11T02:18:18;176.37;;;49.40;;
19219;SDS011;9744;49.364;7.484;2022-12-11T02:20:53;185.90;;;47.33;;
19219;SDS011;9744;49.364;7.484;2022-12-11T02:23:28;162.10;;;47.00;;
19219;SDS011;9744;49.364;7.484;2022-12-11T02:26:21;285.00;;;51.73;;
19219;SDS011;9744;49.364;7.484;2022-12-11T02:29:02;177.93;;;48.17;;
19219;SDS011;9744;49.364;7.484;2022-12-11T02:31:34;260.10;;;50.50;;
19219;SDS011;9744;49.364;7.484;2022-12-11T02:34:07;292.67;;;51.07;;
19219;SDS011;9744;49.364;7.484;2022-12-11T02:36:39;304.40;;;51.73;;
19219;SDS011;9744;49.364;7.484;2022-12-11T02:39:10;201.67;;;48.47;;
19219;SDS011;9744;49.364;7.484;2022-12-11T02:41:42;191.33;;;47.30;;
19219;SDS011;9744;49.364;7.484;2022-12-11T02:44:13;281.10;;;48.43;;
19219;SDS011;9744;49.364;7.484;2022-12-11T02:46:44;270.43;;;48.07;;
19219;SDS011;9744;49.364;7.484;2022-12-11T02:49:12;229.30;;;48.07;;
19219;SDS011;9744;49.364;7.484;2022-12-11T02:51:41;366.97;;;51.60;;
19219;SDS011;9744;49.364;7.484;2022-12-11T02:54:09;233.13;;;47.27;;
19219;SDS011;9744;49.364;7.484;2022-12-11T02:56:42;409.87;;;55.63;;
19219;SDS011;9744;49.364;7.484;2022-12-11T02:59:14;341.53;;;46.93;;
19219;SDS011;9744;49.364;7.484;2022-12-11T03:01:45;506.20;;;52.77;;
19219;SDS011;9744;49.364;7.484;2022-12-11T03:04:13;461.07;;;53.23;;
19219;SDS011;9744;49.364;7.484;2022-12-11T03:06:40;432.00;;;54.63;;
19219;SDS011;9744;49.364;7.484;2022-12-11T03:09:11;380.53;;;52.03;;
19219;SDS011;9744;49.364;7.484;2022-12-11T03:11:38;249.77;;;46.80;;
19219;SDS011;9744;49.364;7.484;2022-12-11T03:14:05;223.40;;;43.67;;
19219;SDS011;9744;49.364;7.484;2022-12-11T03:16:35;407.80;;;50.80;;
19219;SDS011;9744;49.364;7.484;2022-12-11T03:19:07;208.30;;;45.17;;
19219;SDS011;9744;49.364;7.484;2022-12-11T03:21:41;256.13;;;45.57;;
19219;SDS011;9744;49.364;7.484;2022-12-11T03:24:12;458.10;;;47.97;;
19219;SDS011;9744;49.364;7.484;2022-12-11T03:26:44;414.47;;;49.63;;
19219;SDS011;9744;49.364;7.484;2022-12-11T03:29:16;476.77;;;50.43;;
19219;SDS011;9744;49.364;7.484;2022-12-11T03:31:49;445.50;;;49.80;;
19219;SDS011;9744;49.364;7.484;2022-12-11T03:34:24;502.67;;;50.87;;
19219;SDS011;9744;49.364;7.484;2022-12-11T03:36:54;474.10;;;55.33;;
19219;SDS011;9744;49.364;7.484;2022-12-11T03:39:24;327.40;;;49.33;;
19219;SDS011;9744;49.364;7.484;2022-12-11T03:41:54;475.43;;;52.10;;
19219;SDS011;9744;49.364;7.484;2022-12-11T03:44:22;288.40;;;43.63;;
19219;SDS011;9744;49.364;7.484;2022-12-11T03:46:53;547.83;;;58.60;;
19219;SDS011;9744;49.364;7.484;2022-12-11T03:49:24;278.30;;;43.60;;
19219;SDS011;9744;49.364;7.484;2022-12-11T03:51:55;533.63;;;50.10;;
19219;SDS011;9744;49.364;7.484;2022-12-11T03:54:25;478.53;;;48.03;;
19219;SDS011;9744;49.364;7.484;2022-12-11T03:56:54;486.20;;;52.70;;
19219;SDS011;9744;49.364;7.484;2022-12-11T03:59:24;403.37;;;44.37;;
19219;SDS011;9744;49.364;7.484;2022-12-11T04:01:52;538.13;;;54.30;;
19219;SDS011;9744;49.364;7.484;2022-12-11T04:04:19;418.30;;;45.60;;
19219;SDS011;9744;49.364;7.484;2022-12-11T04:06:47;220.93;;;41.67;;
19219;SDS011;9744;49.364;7.484;2022-12-11T04:09:14;326.60;;;44.53;;
19219;SDS011;9744;49.364;7.484;2022-12-11T04:11:41;438.43;;;47.47;;
19219;SDS011;9744;49.364;7.484;2022-12-11T04:14:09;462.00;;;49.20;;
19219;SDS011;9744;49.364;7.484;2022-12-11T04:16:56;417.60;;;43.20;;
19219;SDS011;9744;49.364;7.484;2022-12-11T04:19:25;284.10;;;41.30;;
19219;SDS011;9744;49.364;7.484;2022-12-11T04:22:09;281.30;;;37.57;;
19219;SDS011;9744;49.364;7.484;2022-12-11T04:24:55;381.10;;;46.43;;
19219;SDS011;9744;49.364;7.484;2022-12-11T04:27:22;395.97;;;40.07;;
19219;SDS011;9744;49.364;7.484;2022-12-11T04:30:08;418.63;;;44.37;;
19219;SDS011;9744;49.364;7.484;2022-12-11T04:32:39;470.70;;;45.30;;
19219;SDS011;9744;49.364;7.484;2022-12-11T04:35:07;471.00;;;42.93;;
19219;SDS011;9744;49.364;7.484;2022-12-11T04:37:35;482.90;;;47.67;;
19219;SDS011;9744;49.364;7.484;2022-12-11T04:40:03;503.13;;;44.27;;
19219;SDS011;9744;49.364;7.484;2022-12-11T04:42:31;366.27;;;39.17;;
19219;SDS011;9744;49.364;7.484;2022-12-11T04:44:58;520.03;;;43.53;;
19219;SDS011;9744;49.364;7.484;2022-12-11T04:47:25;483.47;;;46.53;;
19219;SDS011;9744;49.364;7.484;2022-12-11T04:49:54;435.90;;;45.00;;
19219;SDS011;9744;49.364;7.484;2022-12-11T04:52:22;534.87;;;46.30;;
19219;SDS011;9744;49.364;7.484;2022-12-11T04:54:49;533.90;;;46.83;;
19219;SDS011;9744;49.364;7.484;2022-12-11T04:57:16;548.90;;;47.47;;
19219;SDS011;9744;49.364;7.484;2022-12-11T04:59:45;405.70;;;42.23;;
19219;SDS011;9744;49.364;7.484;2022-12-11T05:02:12;686.33;;;53.90;;
19219;SDS011;9744;49.364;7.484;2022-12-11T05:04:40;602.13;;;49.43;;
19219;SDS011;9744;49.364;7.484;2022-12-11T05:07:08;654.10;;;55.20;;
19219;SDS011;9744;49.364;7.484;2022-12-11T05:09:36;542.77;;;45.90;;
19219;SDS011;9744;49.364;7.484;2022-12-11T05:12:03;479.60;;;40.90;;
19219;SDS011;9744;49.364;7.484;2022-12-11T05:14:30;504.23;;;43.50;;
19219;SDS011;9744;49.364;7.484;2022-12-11T05:16:57;629.83;;;49.67;;
19219;SDS011;9744;49.364;7.484;2022-12-11T05:19:25;581.40;;;43.70;;
19219;SDS011;9744;49.364;7.484;2022-12-11T05:21:53;625.23;;;57.03;;
19219;SDS011;9744;49.364;7.484;2022-12-11T05:24:21;434.63;;;42.23;;
19219;SDS011;9744;49.364;7.484;2022-12-11T05:26:48;416.23;;;47.20;;
19219;SDS011;9744;49.364;7.484;2022-12-11T05:29:15;375.53;;;39.50;;
19219;SDS011;9744;49.364;7.484;2022-12-11T05:31:43;633.50;;;45.77;;
19219;SDS011;9744;49.364;7.484;2022-12-11T05:34:10;707.53;;;55.20;;
19219;SDS011;9744;49.364;7.484;2022-12-11T05:36:37;724.53;;;51.17;;
19219;SDS011;9744;49.364;7.484;2022-12-11T05:39:05;451.67;;;47.20;;
19219;SDS011;9744;49.364;7.484;2022-12-11T05:41:34;637.67;;;52.37;;
19219;SDS011;9744;49.364;7.484;2022-12-11T05:44:01;577.93;;;44.97;;
19219;SDS011;9744;49.364;7.484;2022-12-11T05:46:28;788.40;;;55.57;;
19219;SDS011;9744;49.364;7.484;2022-12-11T05:48:57;422.90;;;37.57;;
19219;SDS011;9744;49.364;7.484;2022-12-11T05:51:25;662.00;;;43.70;;
19219;SDS011;9744;49.364;7.484;2022-12-11T05:53:54;655.30;;;51.23;;
19219;SDS011;9744;49.364;7.484;2022-12-11T05:56:22;499.73;;;43.93;;
19219;SDS011;9744;49.364;7.484;2022-12-11T05:58:53;297.73;;;34.93;;
19219;SDS011;9744;49.364;7.484;2022-12-11T06:01:21;370.30;;;40.63;;
19219;SDS011;9744;49.364;7.484;2022-12-11T06:03:49;704.37;;;51.87;;
19219;SDS011;9744;49.364;7.484;2022-12-11T06:06:16;544.33;;;43.93;;
19219;SDS011;9744;49.364;7.484;2022-12-11T06:08:44;398.97;;;36.00;;
19219;SDS011;9744;49.364;7.484;2022-12-11T06:11:11;624.73;;;45.00;;
19219;SDS011;9744;49.364;7.484;2022-12-11T06:13:39;273.17;;;34.30;;
19219;SDS011;9744;49.364;7.484;2022-12-11T06:16:08;479.10;;;40.47;;
19219;SDS011;9744;49.364;7.484;2022-12-11T06:18:35;472.93;;;37.07;;
19219;SDS011;9744;49.364;7.484;2022-12-11T06:21:09;131.10;;;31.77;;
19219;SDS011;9744;49.364;7.484;2022-12-11T06:23:38;566.70;;;39.10;;
19219;SDS011;9744;49.364;7.484;2022-12-11T06:26:05;378.23;;;32.73;;
19219;SDS011;9744;49.364;7.484;2022-12-11T06:28:33;154.73;;;26.97;;
19219;SDS011;9744;49.364;7.484;2022-12-11T06:31:01;206.30;;;30.33;;
19219;SDS011;9744;49.364;7.484;2022-12-11T06:33:30;142.93;;;25.97;;
19219;SDS011;9744;49.364;7.484;2022-12-11T06:35:59;441.33;;;32.67;;
19219;SDS011;9744;49.364;7.484;2022-12-11T06:38:27;266.40;;;27.70;;
19219;SDS011;9744;49.364;7.484;2022-12-11T06:40:55;233.47;;;26.73;;
19219;SDS011;9744;49.364;7.484;2022-12-11T06:43:22;222.23;;;27.10;;
19219;SDS011;9744;49.364;7.484;2022-12-11T06:45:50;90.87;;;23.73;;
19219;SDS011;9744;49.364;7.484;2022-12-11T06:48:18;122.00;;;25.10;;
19219;SDS011;9744;49.364;7.484;2022-12-11T06:50:47;185.87;;;27.63;;
19219;SDS011;9744;49.364;7.484;2022-12-11T06:53:14;324.30;;;29.40;;
19219;SDS011;9744;49.364;7.484;2022-12-11T06:55:42;332.43;;;30.83;;
19219;SDS011;9744;49.364;7.484;2022-12-11T06:58:09;303.70;;;28.97;;
19219;SDS011;9744;49.364;7.484;2022-12-11T07:00:37;112.97;;;24.60;;
19219;SDS011;9744;49.364;7.484;2022-12-11T07:03:04;152.03;;;26.10;;
19219;SDS011;9744;49.364;7.484;2022-12-11T07:05:32;201.50;;;27.00;;
19219;SDS011;9744;49.364;7.484;2022-12-11T07:08:00;420.60;;;33.03;;
19219;SDS011;9744;49.364;7.484;2022-12-11T07:10:28;391.10;;;31.30;;
19219;SDS011;9744;49.364;7.484;2022-12-11T07:12:55;172.57;;;26.67;;
19219;SDS011;9744;49.364;7.484;2022-12-11T07:15:22;230.30;;;26.97;;
19219;SDS011;9744;49.364;7.484;2022-12-11T07:17:49;89.37;;;23.70;;
19219;SDS011;9744;49.364;7.484;2022-12-11T07:20:16;94.33;;;25.60;;
19219;SDS011;9744;49.364;7.484;2022-12-11T07:22:43;155.03;;;28.70;;
19219;SDS011;9744;49.364;7.484;2022-12-11T07:25:14;123.87;;;27.27;;
19219;SDS011;9744;49.364;7.484;2022-12-11T07:27:41;65.23;;;21.80;;
19219;SDS011;9744;49.364;7.484;2022-12-11T07:30:09;79.67;;;25.67;;
19219;SDS011;9744;49.364;7.484;2022-12-11T07:32:37;113.77;;;37.40;;
19219;SDS011;9744;49.364;7.484;2022-12-11T07:35:05;88.97;;;26.53;;
19219;SDS011;9744;49.364;7.484;2022-12-11T07:37:32;74.87;;;20.33;;
19219;SDS011;9744;49.364;7.484;2022-12-11T07:39:59;240.83;;;24.77;;
19219;SDS011;9744;49.364;7.484;2022-12-11T07:42:28;170.43;;;22.53;;
19219;SDS011;9744;49.364;7.484;2022-12-11T07:44:55;90.57;;;21.90;;
19219;SDS011;9744;49.364;7.484;2022-12-11T07:47:22;175.30;;;24.93;;
19219;SDS011;9744;49.364;7.484;2022-12-11T07:49:49;168.20;;;24.07;;
19219;SDS011;9744;49.364;7.484;2022-12-11T07:52:16;86.00;;;22.73;;
19219;SDS011;9744;49.364;7.484;2022-12-11T07:54:44;259.53;;;28.13;;
19219;SDS011;9744;49.364;7.484;2022-12-11T07:57:11;105.10;;;26.83;;
19219;SDS011;9744;49.364;7.484;2022-12-11T07:59:39;158.20;;;27.23;;
19219;SDS011;9744;49.364;7.484;2022-12-11T08:02:08;158.40;;;25.40;;
19219;SDS011;9744;49.364;7.484;2022-12-11T08:04:36;70.53;;;21.67;;
19219;SDS011;9744;49.364;7.484;2022-12-11T08:07:03;172.37;;;25.77;;
19219;SDS011;9744;49.364;7.484;2022-12-11T08:09:30;91.27;;;22.27;;
19219;SDS011;9744;49.364;7.484;2022-12-11T08:11:57;440.73;;;30.87;;
19219;SDS011;9744;49.364;7.484;2022-12-11T08:14:24;109.03;;;24.27;;
19219;SDS011;9744;49.364;7.484;2022-12-11T08:16:53;77.37;;;24.23;;
19219;SDS011;9744;49.364;7.484;2022-12-11T08:19:21;176.20;;;26.93;;
19219;SDS011;9744;49.364;7.484;2022-12-11T08:21:49;120.43;;;26.60;;
19219;SDS011;9744;49.364;7.484;2022-12-11T08:24:16;263.07;;;28.73;;
19219;SDS011;9744;49.364;7.484;2022-12-11T08:26:45;263.63;;;30.87;;
19219;SDS011;9744;49.364;7.484;2022-12-11T08:29:13;544.37;;;34.83;;
19219;SDS011;9744;49.364;7.484;2022-12-11T08:31:40;192.20;;;27.50;;
19219;SDS011;9744;49.364;7.484;2022-12-11T08:34:09;288.80;;;28.53;;
19219;SDS011;9744;49.364;7.484;2022-12-11T08:36:38;362.90;;;30.53;;
19219;SDS011;9744;49.364;7.484;2022-12-11T08:39:06;72.70;;;22.17;;
19219;SDS011;9744;49.364;7.484;2022-12-11T08:41:33;434.97;;;32.17;;
19219;SDS011;9744;49.364;7.484;2022-12-11T08:44:01;220.10;;;26.17;;
19219;SDS011;9744;49.364;7.484;2022-12-11T08:46:29;203.40;;;29.10;;
19219;SDS011;9744;49.364;7.484;2022-12-11T08:48:57;189.53;;;27.50;;
19219;SDS011;9744;49.364;7.484;2022-12-11T08:51:26;335.07;;;29.43;;
19219;SDS011;9744;49.364;7.484;2022-12-11T08:53:54;460.73;;;35.50;;
19219;SDS011;9744;49.364;7.484;2022-12-11T08:56:22;243.90;;;31.07;;
19219;SDS011;9744;49.364;7.484;2022-12-11T08:58:51;279.77;;;32.10;;
19219;SDS011;9744;49.364;7.484;2022-12-11T09:01:19;180.43;;;33.57;;
19219;SDS011;9744;49.364;7.484;2022-12-11T09:03:48;148.60;;;26.73;;
19219;SDS011;9744;49.364;7.484;2022-12-11T09:06:16;182.63;;;28.33;;
19219;SDS011;9744;49.364;7.484;2022-12-11T09:08:47;190.87;;;29.73;;
19219;SDS011;9744;49.364;7.484;2022-12-11T09:11:16;158.00;;;28.20;;
19219;SDS011;9744;49.364;7.484;2022-12-11T09:13:45;170.63;;;26.63;;
19219;SDS011;9744;49.364;7.484;2022-12-11T09:16:12;333.93;;;32.07;;
19219;SDS011;9744;49.364;7.484;2022-12-11T09:18:41;81.10;;;25.40;;
19219;SDS011;9744;49.364;7.484;2022-12-11T09:21:11;186.30;;;28.80;;
19219;SDS011;9744;49.364;7.484;2022-12-11T09:23:40;100.47;;;26.17;;
19219;SDS011;9744;49.364;7.484;2022-12-11T09:26:09;174.97;;;28.20;;
19219;SDS011;9744;49.364;7.484;2022-12-11T09:28:38;351.70;;;34.57;;
19219;SDS011;9744;49.364;7.484;2022-12-11T09:31:07;209.37;;;29.30;;
19219;SDS011;9744;49.364;7.484;2022-12-11T09:33:35;276.33;;;31.90;;
19219;SDS011;9744;49.364;7.484;2022-12-11T09:36:02;109.10;;;27.07;;
19219;SDS011;9744;49.364;7.484;2022-12-11T09:38:31;137.03;;;31.00;;
19219;SDS011;9744;49.364;7.484;2022-12-11T09:41:00;106.40;;;29.27;;
19219;SDS011;9744;49.364;7.484;2022-12-11T09:43:32;106.43;;;31.50;;
19219;SDS011;9744;49.364;7.484;2022-12-11T09:46:04;89.87;;;24.83;;
19219;SDS011;9744;49.364;7.484;2022-12-11T09:48:35;268.40;;;35.93;;
19219;SDS011;9744;49.364;7.484;2022-12-11T09:51:04;286.83;;;29.37;;
19219;SDS011;9744;49.364;7.484;2022-12-11T09:53:42;150.00;;;40.70;;
19219;SDS011;9744;49.364;7.484;2022-12-11T09:56:14;99.80;;;27.47;;
19219;SDS011;9744;49.364;7.484;2022-12-11T09:58:52;104.27;;;28.43;;
19219;SDS011;9744;49.364;7.484;2022-12-11T10:01:28;225.30;;;39.80;;
19219;SDS011;9744;49.364;7.484;2022-12-11T10:04:09;173.80;;;38.50;;
19219;SDS011;9744;49.364;7.484;2022-12-11T10:07:03;115.47;;;27.77;;
19219;SDS011;9744;49.364;7.484;2022-12-11T10:09:38;112.30;;;27.67;;
19219;SDS011;9744;49.364;7.484;2022-12-11T10:12:24;105.73;;;28.13;;
19219;SDS011;9744;49.364;7.484;2022-12-11T10:15:03;92.20;;;24.93;;
19219;SDS011;9744;49.364;7.484;2022-12-11T10:17:40;125.63;;;26.47;;
19219;SDS011;9744;49.364;7.484;2022-12-11T10:20:13;91.17;;;26.07;;
19219;SDS011;9744;49.364;7.484;2022-12-11T10:22:48;105.87;;;27.93;;
19219;SDS011;9744;49.364;7.484;2022-12-11T10:25:18;103.90;;;25.87;;
19219;SDS011;9744;49.364;7.484;2022-12-11T10:27:47;97.07;;;27.93;;
19219;SDS011;9744;49.364;7.484;2022-12-11T10:30:17;179.43;;;28.80;;
19219;SDS011;9744;49.364;7.484;2022-12-11T10:32:50;120.37;;;28.93;;
19219;SDS011;9744;49.364;7.484;2022-12-11T10:35:22;86.20;;;25.57;;
19219;SDS011;9744;49.364;7.484;2022-12-11T10:37:55;79.73;;;24.23;;
19219;SDS011;9744;49.364;7.484;2022-12-11T10:40:28;88.37;;;25.30;;
19219;SDS011;9744;49.364;7.484;2022-12-11T10:42:57;85.20;;;25.30;;
19219;SDS011;9744;49.364;7.484;2022-12-11T10:45:26;84.93;;;26.03;;
19219;SDS011;9744;49.364;7.484;2022-12-11T10:48:00;91.43;;;25.37;;
19219;SDS011;9744;49.364;7.484;2022-12-11T10:50:29;87.73;;;25.97;;
19219;SDS011;9744;49.364;7.484;2022-12-11T10:52:56;85.10;;;26.50;;
19219;SDS011;9744;49.364;7.484;2022-12-11T10:55:24;86.13;;;26.90;;
19219;SDS011;9744;49.364;7.484;2022-12-11T10:57:55;75.90;;;24.43;;
19219;SDS011;9744;49.364;7.484;2022-12-11T11:00:28;83.67;;;25.50;;
19219;SDS011;9744;49.364;7.484;2022-12-11T11:02:57;67.93;;;22.73;;
19219;SDS011;9744;49.364;7.484;2022-12-11T11:05:27;76.73;;;25.37;;
19219;SDS011;9744;49.364;7.484;2022-12-11T11:08:03;64.80;;;22.37;;
19219;SDS011;9744;49.364;7.484;2022-12-11T11:10:48;75.53;;;26.30;;
19219;SDS011;9744;49.364;7.484;2022-12-11T11:13:17;62.30;;;21.43;;
19219;SDS011;9744;49.364;7.484;2022-12-11T11:15:48;66.23;;;24.23;;
19219;SDS011;9744;49.364;7.484;2022-12-11T11:18:18;70.40;;;23.20;;
19219;SDS011;9744;49.364;7.484;2022-12-11T11:20:51;59.28;;;21.52;;
19219;SDS011;9744;49.364;7.484;2022-12-11T11:23:21;70.60;;;24.63;;
19219;SDS011;9744;49.364;7.484;2022-12-11T11:25:50;65.38;;;22.30;;
19219;SDS011;9744;49.364;7.484;2022-12-11T11:28:20;75.05;;;23.92;;
19219;SDS011;9744;49.364;7.484;2022-12-11T11:30:56;58.30;;;22.27;;
19219;SDS011;9744;49.364;7.484;2022-12-11T11:33:28;66.70;;;21.67;;
19219;SDS011;9744;49.364;7.484;2022-12-11T11:35:56;66.13;;;24.00;;
19219;SDS011;9744;49.364;7.484;2022-12-11T11:38:27;60.87;;;20.67;;
19219;SDS011;9744;49.364;7.484;2022-12-11T11:41:00;59.00;;;19.87;;
19219;SDS011;9744;49.364;7.484;2022-12-11T11:43:36;62.37;;;20.97;;
19219;SDS011;9744;49.364;7.484;2022-12-11T11:46:11;56.87;;;20.50;;
19219;SDS011;9744;49.364;7.484;2022-12-11T11:48:45;74.53;;;24.77;;
19219;SDS011;9744;49.364;7.484;2022-12-11T11:51:18;63.90;;;22.47;;
19219;SDS011;9744;49.364;7.484;2022-12-11T11:53:50;63.07;;;20.37;;
19219;SDS011;9744;49.364;7.484;2022-12-11T11:56:21;63.83;;;20.73;;
19219;SDS011;9744;49.364;7.484;2022-12-11T11:58:59;59.13;;;19.80;;
19219;SDS011;9744;49.364;7.484;2022-12-11T12:01:33;80.20;;;25.77;;
19219;SDS011;9744;49.364;7.484;2022-12-11T12:04:01;64.07;;;20.97;;
19219;SDS011;9744;49.364;7.484;2022-12-11T12:09:41;74.23;;;25.00;;
19219;SDS011;9744;49.364;7.484;2022-12-11T12:12:17;79.03;;;23.23;;
19219;SDS011;9744;49.364;7.484;2022-12-11T12:14:58;72.30;;;24.80;;
19219;SDS011;9744;49.364;7.484;2022-12-11T12:17:36;69.60;;;23.53;;
19219;SDS011;9744;49.364;7.484;2022-12-11T12:20:13;58.55;;;21.17;;
19219;SDS011;9744;49.364;7.484;2022-12-11T12:22:55;63.27;;;21.40;;
19219;SDS011;9744;49.364;7.484;2022-12-11T12:25:30;55.78;;;20.52;;
19219;SDS011;9744;49.364;7.484;2022-12-11T12:28:05;58.33;;;21.67;;
19219;SDS011;9744;49.364;7.484;2022-12-11T12:30:44;55.92;;;20.13;;
19219;SDS011;9744;49.364;7.484;2022-12-11T12:33:25;55.78;;;18.10;;
19219;SDS011;9744;49.364;7.484;2022-12-11T12:36:05;53.53;;;19.42;;
19219;SDS011;9744;49.364;7.484;2022-12-11T12:38:44;49.65;;;17.48;;
19219;SDS011;9744;49.364;7.484;2022-12-11T12:41:19;57.35;;;18.55;;
19219;SDS011;9744;49.364;7.484;2022-12-11T12:43:57;50.50;;;17.15;;
19219;SDS011;9744;49.364;7.484;2022-12-11T12:46:36;48.33;;;18.08;;
19219;SDS011;9744;49.364;7.484;2022-12-11T12:49:14;41.53;;;16.75;;
19219;SDS011;9744;49.364;7.484;2022-12-11T12:51:45;45.95;;;17.00;;
19219;SDS011;9744;49.364;7.484;2022-12-11T12:54:16;41.28;;;16.77;;
19219;SDS011;9744;49.364;7.484;2022-12-11T12:56:46;54.40;;;18.90;;
19219;SDS011;9744;49.364;7.484;2022-12-11T12:59:18;45.90;;;17.95;;
19219;SDS011;9744;49.364;7.484;2022-12-11T13:01:46;49.20;;;18.30;;
19219;SDS011;9744;49.364;7.484;2022-12-11T13:07:11;41.75;;;16.58;;
19219;SDS011;9744;49.364;7.484;2022-12-11T13:09:41;60.67;;;22.13;;
19219;SDS011;9744;49.364;7.484;2022-12-11T13:12:11;51.35;;;19.45;;
19219;SDS011;9744;49.364;7.484;2022-12-11T13:14:40;69.60;;;27.95;;
19219;SDS011;9744;49.364;7.484;2022-12-11T13:17:23;51.78;;;19.02;;
19219;SDS011;9744;49.364;7.484;2022-12-11T13:20:15;51.00;;;20.20;;
19219;SDS011;9744;49.364;7.484;2022-12-11T13:25:50;45.90;;;17.93;;
19219;SDS011;9744;49.364;7.484;2022-12-11T13:28:21;54.17;;;18.47;;
19219;SDS011;9744;49.364;7.484;2022-12-11T13:31:06;48.80;;;17.07;;
19219;SDS011;9744;49.364;7.484;2022-12-11T13:34:04;49.33;;;18.33;;
19219;SDS011;9744;49.364;7.484;2022-12-11T13:36:39;47.87;;;18.10;;
19219;SDS011;9744;49.364;7.484;2022-12-11T13:39:15;49.08;;;17.60;;
19219;SDS011;9744;49.364;7.484;2022-12-11T13:41:44;52.22;;;22.77;;
19219;SDS011;9744;49.364;7.484;2022-12-11T13:44:15;64.43;;;26.23;;
19219;SDS011;9744;49.364;7.484;2022-12-11T13:46:49;58.47;;;21.83;;
19219;SDS011;9744;49.364;7.484;2022-12-11T13:49:20;60.90;;;20.83;;
19219;SDS011;9744;49.364;7.484;2022-12-11T13:51:55;55.90;;;19.47;;
19219;SDS011;9744;49.364;7.484;2022-12-11T13:54:24;64.57;;;21.67;;
19219;SDS011;9744;49.364;7.484;2022-12-11T13:56:57;62.77;;;21.57;;
19219;SDS011;9744;49.364;7.484;2022-12-11T13:59:28;68.00;;;21.63;;
19219;SDS011;9744;49.364;7.484;2022-12-11T14:01:57;83.43;;;29.37;;
19219;SDS011;9744;49.364;7.484;2022-12-11T14:04:29;65.60;;;21.23;;
19219;SDS011;9744;49.364;7.484;2022-12-11T14:07:00;54.90;;;20.83;;
19219;SDS011;9744;49.364;7.484;2022-12-11T14:09:28;51.77;;;19.50;;
19219;SDS011;9744;49.364;7.484;2022-12-11T14:11:55;48.27;;;18.73;;
19219;SDS011;9744;49.364;7.484;2022-12-11T14:14:25;50.60;;;19.00;;
19219;SDS011;9744;49.364;7.484;2022-12-11T14:17:00;55.47;;;19.87;;
19219;SDS011;9744;49.364;7.484;2022-12-11T14:19:28;55.23;;;21.27;;
19219;SDS011;9744;49.364;7.484;2022-12-11T14:21:56;47.57;;;18.97;;
19219;SDS011;9744;49.364;7.484;2022-12-11T14:24:26;57.67;;;20.67;;
19219;SDS011;9744;49.364;7.484;2022-12-11T14:26:54;51.77;;;19.83;;
19219;SDS011;9744;49.364;7.484;2022-12-11T14:29:23;64.67;;;20.00;;
19219;SDS011;9744;49.364;7.484;2022-12-11T14:31:51;53.13;;;20.47;;
19219;SDS011;9744;49.364;7.484;2022-12-11T14:34:22;61.27;;;22.17;;
19219;SDS011;9744;49.364;7.484;2022-12-11T14:36:51;64.63;;;21.70;;
19219;SDS011;9744;49.364;7.484;2022-12-11T14:39:21;58.20;;;20.60;;
19219;SDS011;9744;49.364;7.484;2022-12-11T14:41:56;64.23;;;22.17;;
19219;SDS011;9744;49.364;7.484;2022-12-11T14:44:26;78.33;;;29.17;;
19219;SDS011;9744;49.364;7.484;2022-12-11T14:46:59;48.73;;;19.30;;
19219;SDS011;9744;49.364;7.484;2022-12-11T14:49:31;59.25;;;19.58;;
19219;SDS011;9744;49.364;7.484;2022-12-11T14:52:04;52.67;;;19.00;;
19219;SDS011;9744;49.364;7.484;2022-12-11T14:54:39;52.10;;;19.73;;
19219;SDS011;9744;49.364;7.484;2022-12-11T14:57:13;65.63;;;23.53;;